createdAt,value
2023-02-05T00:03:22.984Z,98.51
2023-02-05T00:08:27.457Z,98.63
2023-02-05T00:13:29.127Z,98.67
2023-02-05T00:18:31.743Z,98.51
2023-02-05T00:23:35.013Z,98.17
2023-02-05T00:28:36.874Z,98.38
2023-02-05T00:33:38.673Z,98.25
2023-02-05T00:38:42.265Z,97.60
2023-02-05T00:43:44.044Z,97.50
2023-02-05T00:48:45.827Z,97.41
2023-02-05T00:53:48.906Z,97.49
2023-02-05T00:58:51.195Z,97.26
2023-02-05T01:03:53.171Z,97.13
2023-02-05T01:08:56.237Z,96.50
2023-02-05T01:13:59.922Z,97.12
2023-02-05T01:19:01.706Z,96.89
2023-02-05T01:24:05.832Z,97.04
2023-02-05T01:29:07.618Z,96.77
2023-02-05T01:34:09.421Z,96.94
2023-02-05T01:39:12.562Z,96.90
2023-02-05T01:44:15.633Z,96.33
2023-02-05T01:49:19.726Z,96.49
2023-02-05T01:54:23.169Z,96.55
2023-02-05T01:59:26.342Z,97.10
2023-02-05T02:04:32.925Z,97.30
2023-02-05T02:09:36.077Z,97.07
2023-02-05T02:14:37.829Z,97.55
2023-02-05T02:19:42.959Z,97.77
2023-02-05T02:25:24.492Z,97.93
2023-02-05T02:30:29.489Z,97.89
2023-02-05T02:35:34.465Z,98.27
2023-02-05T02:40:37.660Z,98.26
2023-02-05T02:45:43.502Z,97.72
2023-02-05T02:50:46.988Z,97.87
2023-02-05T02:55:49.033Z,97.70
2023-02-05T03:00:52.653Z,97.78
2023-02-05T03:05:54.488Z,97.67
2023-02-05T03:10:58.863Z,97.58
2023-02-05T03:16:01.970Z,97.08
2023-02-05T03:21:05.454Z,97.80
2023-02-05T03:26:22.390Z,97.50
2023-02-05T03:31:30.274Z,97.16
2023-02-05T03:36:35.947Z,96.76
2023-02-05T03:41:57.513Z,96.29
2023-02-05T03:47:05.987Z,96.50
2023-02-05T03:52:10.780Z,96.97
2023-02-05T03:57:15.746Z,97.70
2023-02-05T04:02:20.528Z,97.78
2023-02-05T04:07:22.719Z,97.31
2023-02-05T04:12:24.553Z,96.79
2023-02-05T04:17:27.703Z,96.09
2023-02-05T04:22:30.030Z,97.17
2023-02-05T04:27:32.306Z,97.01
2023-02-05T04:32:37.533Z,97.39
2023-02-05T04:37:39.873Z,97.19
2023-02-05T04:42:41.684Z,97.13
2023-02-05T04:47:44.687Z,97.00
2023-02-05T04:52:46.353Z,97.29
2023-02-05T04:57:48.078Z,97.00
2023-02-05T05:02:51.127Z,96.87
2023-02-05T05:07:52.831Z,97.02
2023-02-05T05:12:54.565Z,96.51
2023-02-05T05:17:57.604Z,96.55
2023-02-05T05:23:00.324Z,96.60
2023-02-05T05:28:02.070Z,96.16
2023-02-05T05:33:05.225Z,95.92
2023-02-05T05:38:07.007Z,95.90
2023-02-05T05:43:27.994Z,95.48
2023-02-05T05:48:31.107Z,95.30
2023-02-05T05:53:32.903Z,95.22
2023-02-05T05:58:34.654Z,94.49
2023-02-05T06:03:37.744Z,94.57
2023-02-05T06:08:39.557Z,94.04
2023-02-05T06:13:41.805Z,94.46
2023-02-05T06:18:45.001Z,94.79
2023-02-05T06:23:47.888Z,94.43
2023-02-05T06:28:49.534Z,94.59
2023-02-05T06:33:52.568Z,94.52
2023-02-05T06:38:54.277Z,94.07
2023-02-05T06:43:56.328Z,93.74
2023-02-05T06:48:59.363Z,93.14
2023-02-05T06:54:01.033Z,93.00
2023-02-05T06:59:02.703Z,93.50
2023-02-05T07:04:05.796Z,93.88
2023-02-05T07:09:08.033Z,94.59
2023-02-05T07:14:09.759Z,94.83
2023-02-05T07:19:12.824Z,95.09
2023-02-05T07:24:14.504Z,94.50
2023-02-05T07:29:16.158Z,94.60
2023-02-05T07:34:20.269Z,93.50
2023-02-05T07:39:21.943Z,92.77
2023-02-05T07:44:23.669Z,92.70
2023-02-05T07:49:27.232Z,92.64
2023-02-05T07:54:28.938Z,92.54
2023-02-05T07:59:30.624Z,93.07
2023-02-05T08:04:33.878Z,92.35
2023-02-05T08:09:36.257Z,91.23
2023-02-05T08:14:38.010Z,90.54
2023-02-05T08:19:42.043Z,89.41
2023-02-05T08:24:43.708Z,89.16
2023-02-05T08:29:47.143Z,88.68
2023-02-05T08:34:50.884Z,88.62
2023-02-05T08:39:52.621Z,87.85
2023-02-05T08:44:58.284Z,87.25
2023-02-05T08:50:01.398Z,86.28
2023-02-05T08:55:03.447Z,85.00
2023-02-05T09:00:05.642Z,85.50
2023-02-05T09:05:09.822Z,87.74
2023-02-05T09:10:12.480Z,87.79
2023-02-05T09:15:14.179Z,89.15
2023-02-05T09:20:17.638Z,88.50
2023-02-05T09:25:19.591Z,86.44
2023-02-05T09:30:21.267Z,82.36
2023-02-05T09:35:24.338Z,79.47
2023-02-05T09:40:28.471Z,79.89
2023-02-05T09:45:39.559Z,80.42
2023-02-05T09:50:42.776Z,81.32
2023-02-05T09:55:47.622Z,83.14
2023-02-05T10:00:49.876Z,83.38
2023-02-05T10:06:12.197Z,84.72
2023-02-05T10:11:18.170Z,84.63
2023-02-05T10:16:30.088Z,84.50
2023-02-05T10:21:43.868Z,84.26
2023-02-05T10:26:48.656Z,86.81
2023-02-05T10:31:55.588Z,86.71
2023-02-05T10:36:58.703Z,85.60
2023-02-05T10:42:01.808Z,85.30
2023-02-05T10:47:05.690Z,85.63
2023-02-05T10:52:11.425Z,86.43
2023-02-05T10:57:13.882Z,86.09
2023-02-05T11:02:15.561Z,86.81
2023-02-05T11:07:21.863Z,86.40
2023-02-05T11:12:27.823Z,85.79
2023-02-05T11:17:31.973Z,85.07
2023-02-05T11:22:36.243Z,84.57
2023-02-05T11:27:39.190Z,84.27
2023-02-05T11:32:40.991Z,83.29
2023-02-05T11:37:44.038Z,83.62
2023-02-05T11:42:48.445Z,82.69
2023-02-05T11:47:50.094Z,83.10
2023-02-05T11:52:53.265Z,82.32
2023-02-05T11:57:58.347Z,81.76
2023-02-05T12:03:05.124Z,79.66
2023-02-05T12:08:11.978Z,80.54
2023-02-05T12:13:19.398Z,79.00
2023-02-05T12:18:25.897Z,79.56
2023-02-05T12:23:39.242Z,78.12
2023-02-05T12:28:45.209Z,78.47
2023-02-05T12:34:01.426Z,78.97
2023-02-05T12:39:09.162Z,78.98
2023-02-05T12:44:24.786Z,76.91
2023-02-05T12:49:40.320Z,74.55
2023-02-05T12:54:59.229Z,74.47
2023-02-05T13:00:03.602Z,73.58
2023-02-05T13:05:10.850Z,74.14
2023-02-05T13:10:17.172Z,74.55
2023-02-05T13:15:19.564Z,74.67
2023-02-05T13:20:43.774Z,74.10
2023-02-05T13:26:07.309Z,73.77
2023-02-05T13:31:21.142Z,72.10
2023-02-05T13:36:51.401Z,72.72
2023-02-05T13:42:03.041Z,71.84
2023-02-05T13:47:34.622Z,72.30
2023-02-05T13:52:46.879Z,73.37
2023-02-05T13:58:20.524Z,73.66
2023-02-05T14:03:26.697Z,74.02
2023-02-05T14:08:37.498Z,73.00
2023-02-05T14:13:40.638Z,71.98
2023-02-05T14:18:47.610Z,71.97
2023-02-05T14:23:56.005Z,71.61
2023-02-05T14:28:58.998Z,73.58
2023-02-05T14:34:28.357Z,73.46
2023-02-05T14:39:32.916Z,74.03
2023-02-05T14:44:36.813Z,75.13
2023-02-05T14:49:42.788Z,75.51
2023-02-05T14:54:46.712Z,76.94
2023-02-05T14:59:53.008Z,77.69
2023-02-05T15:04:54.692Z,78.56
2023-02-05T15:09:57.790Z,78.61
2023-02-05T15:15:01.392Z,78.92
2023-02-05T15:20:04.624Z,79.50
2023-02-05T15:25:09.347Z,80.65
2023-02-05T15:30:16.926Z,81.23
2023-02-05T15:35:19.362Z,81.69
2023-02-05T15:40:22.596Z,82.41
2023-02-05T15:45:28.439Z,82.42
2023-02-05T15:50:30.173Z,83.27
2023-02-05T15:55:32.128Z,83.91
2023-02-05T16:00:35.510Z,85.17
2023-02-05T16:05:37.824Z,85.67
2023-02-05T16:10:39.524Z,85.38
2023-02-05T16:15:44.532Z,86.47
2023-02-05T16:20:46.988Z,87.08
2023-02-05T16:25:49.593Z,87.08
2023-02-05T16:30:53.914Z,86.91
2023-02-05T16:35:55.601Z,87.24
2023-02-05T16:40:58.908Z,88.17
2023-02-05T16:46:24.651Z,88.08
2023-02-05T16:51:28.030Z,88.16
2023-02-05T16:56:30.261Z,88.12
2023-02-05T17:01:38.277Z,87.82
2023-02-05T17:06:40.012Z,87.54
2023-02-05T17:11:42.269Z,88.14
2023-02-05T17:16:52.927Z,87.86
2023-02-05T17:22:18.968Z,87.90
2023-02-05T17:27:24.724Z,87.18
2023-02-05T17:32:27.680Z,87.02
2023-02-05T17:37:29.306Z,86.89
2023-02-05T17:42:31.236Z,86.65
2023-02-05T17:47:34.292Z,88.27
2023-02-05T17:52:35.957Z,88.65
2023-02-05T17:57:37.977Z,87.78
2023-02-05T18:02:41.037Z,88.80
2023-02-05T18:07:44.111Z,88.92
2023-02-05T18:12:45.858Z,88.10
2023-02-05T18:17:48.885Z,87.15
2023-02-05T18:22:50.764Z,87.13
2023-02-05T18:27:52.854Z,87.97
2023-02-05T18:32:56.302Z,88.00
2023-02-05T18:37:58.014Z,87.52
2023-02-05T18:43:00.352Z,88.06
2023-02-05T18:48:03.740Z,90.31
2023-02-05T18:53:06.128Z,90.32
2023-02-05T18:58:07.805Z,90.19
2023-02-05T19:03:11.277Z,88.81
2023-02-05T19:08:13.514Z,88.67
2023-02-05T19:13:15.302Z,88.28
2023-02-05T19:18:18.299Z,86.75
2023-02-05T19:23:20.014Z,87.02
2023-02-05T19:28:21.665Z,87.17
2023-02-05T19:33:24.681Z,88.17
2023-02-05T19:38:26.346Z,88.35
2023-02-05T19:43:28.093Z,88.04
2023-02-05T19:48:31.229Z,89.01
2023-02-05T19:53:32.964Z,88.65
2023-02-05T19:58:34.790Z,89.18
2023-02-05T20:03:37.893Z,90.82
2023-02-05T20:08:39.862Z,91.65
2023-02-05T20:13:41.910Z,92.00
2023-02-05T20:18:44.990Z,91.58
2023-02-05T20:23:46.861Z,90.18
2023-02-05T20:29:11.079Z,89.79
2023-02-05T20:34:18.234Z,89.92
2023-02-05T20:39:20.324Z,89.86
2023-02-05T20:44:22.024Z,91.12
2023-02-05T20:49:25.327Z,90.45
2023-02-05T20:54:27.002Z,88.72
2023-02-05T20:59:29.441Z,88.45
2023-02-05T21:04:32.503Z,88.65
2023-02-05T21:09:34.372Z,88.52
2023-02-05T21:14:36.038Z,88.04
2023-02-05T21:19:39.539Z,88.07
2023-02-05T21:24:41.282Z,88.38
2023-02-05T21:29:43.544Z,87.81
2023-02-05T21:38:04.905Z,87.90
2023-02-05T21:43:06.591Z,88.15
2023-02-05T21:48:08.960Z,88.28
2023-02-05T21:53:12.461Z,89.54
2023-02-05T21:58:14.143Z,90.31
2023-02-05T22:03:15.761Z,90.56
2023-02-05T22:08:18.774Z,90.94
2023-02-05T22:13:20.436Z,91.38
2023-02-05T22:18:22.139Z,92.36
2023-02-05T22:23:25.148Z,92.73
2023-02-05T22:28:26.933Z,92.72
2023-02-05T22:33:29.027Z,92.78
2023-02-05T22:38:32.237Z,93.84
2023-02-05T22:43:34.499Z,94.68
2023-02-05T22:48:36.833Z,94.70
2023-02-05T22:53:39.844Z,95.30
2023-02-05T22:58:42.393Z,95.88
2023-02-05T23:03:45.606Z,96.47
2023-02-05T23:08:51.196Z,96.67
2023-02-05T23:13:52.864Z,96.40
2023-02-05T23:18:55.847Z,96.20
2023-02-05T23:23:58.828Z,95.58
2023-02-05T23:29:00.517Z,95.22
2023-02-05T23:34:02.304Z,95.22
2023-02-05T23:39:05.385Z,95.15
2023-02-05T23:44:09.835Z,94.78
2023-02-05T23:49:11.633Z,95.28
2023-02-05T23:54:14.641Z,95.55
2023-02-05T23:59:16.336Z,95.66
